Salish Orca — CFBS — position and weather

sailwx.info

Track history (hours):
 
Tides and Currents Weather Stations Pressure Air Temp Water Temp Dewpoint Dewpoint Depression Visibility Wind Speed Wind Dir Waves Ship Positions

Salish Orca

Last reported at 2017-Nov-24 00:00 UTC. Time now 2017-Nov-24 00:18 UTC.
Position N 49°48' W 124°39'.

Length 107 m; draft 4.6 m.

Type: Passenger vessel. MMSI: 316030627.

Date/timePositionNaut miles runAvg speedWind from/ knotsBaromVisibWave heightAir tempDewpointWater temp
2017-Nov-24 00:00N 49°48' W 124°39'715.0
2017-Nov-23 23:30N 49°46' W 124°50'4 7.7
2017-Nov-23 23:01N 49°44' W 124°55'0 0.0
2017-Nov-23 22:30N 49°44' W 124°55'0 0.0
2017-Nov-23 21:58N 49°44' W 124°55'0 0.0
2017-Nov-23 21:28N 49°44' W 124°55'0 1.1
2017-Nov-23 21:00N 49°45' W 124°55'713.8
2017-Nov-23 20:30N 49°46' W 124°44'713.6
2017-Nov-23 20:01N 49°49' W 124°35'2 4.2
2017-Nov-23 19:30N 49°50' W 124°32'3 5.0
2017-Nov-23 19:00N 49°49' W 124°36'713.6
2017-Nov-23 18:30N 49°47' W 124°45'713.4
2017-Nov-23 18:00N 49°45' W 124°55'0 0.4
2017-Nov-23 17:30N 49°44' W 124°55'4 8.4
2017-Nov-23 17:00N 49°46' W 124°49'714.0
2017-Nov-23 16:30N 49°48' W 124°39'5 9.9
2017-Nov-23 16:00N 49°50' W 124°32'1 2.2
2017-Nov-23 15:30N 49°50' W 124°33'816.2
2017-Nov-23 15:00N 49°47' W 124°45'714.2
2017-Nov-23 14:31N 49°44' W 124°55'0 0.0
2017-Nov-23 14:01N 49°44' W 124°55'0 0.0
2017-Nov-23 13:30N 49°44' W 124°55'0 0.0
2017-Nov-23 13:00N 49°44' W 124°55'0 0.0
2017-Nov-23 12:30N 49°44' W 124°55'0 0.0
2017-Nov-23 12:00N 49°44' W 124°55'0 0.0
2017-Nov-23 11:30N 49°44' W 124°55'0 0.0
2017-Nov-23 11:00N 49°44' W 124°55'0 0.0
2017-Nov-23 10:18N 49°44' W 124°55'0 0.0
2017-Nov-23 10:00N 49°44' W 124°55'0 0.0
2017-Nov-23 09:30N 49°44' W 124°55'0 0.0
2017-Nov-23 08:57N 49°44' W 124°55'0 0.0
2017-Nov-23 08:30N 49°44' W 124°55'0 0.0
2017-Nov-23 07:57N 49°44' W 124°55'0 0.0
2017-Nov-23 07:27N 49°44' W 124°55'0 0.0
2017-Nov-23 07:00N 49°44' W 124°55'0 0.0
2017-Nov-23 06:30N 49°44' W 124°55'0 0.0
2017-Nov-23 06:00N 49°44' W 124°55'611.2
2017-Nov-23 05:30N 49°47' W 124°47'714.1
2017-Nov-23 05:00N 49°49' W 124°37'4 7.1
2017-Nov-23 04:30N 49°50' W 124°32'1 2.0
2017-Nov-23 04:00N 49°50' W 124°33'713.7
2017-Nov-23 03:30N 49°47' W 124°43'612.9
2017-Nov-23 03:00N 49°45' W 124°53'2 3.9
2017-Nov-23 02:30N 49°44' W 124°55'0 0.0
2017-Nov-23 02:00N 49°44' W 124°55'0 0.0
2017-Nov-23 01:30N 49°44' W 124°55'0 0.0
2017-Nov-23 00:53N 49°44' W 124°55'0 0.0
2017-Nov-23 00:29N 49°44' W 124°55'0 0.0
2017-Nov-22 23:41N 49°44' W 124°55'0 0.0
2017-Nov-22 23:29N 49°44' W 124°55'0 0.0
2017-Nov-22 22:59N 49°44' W 124°55'0 0.0
2017-Nov-22 22:11N 49°44' W 124°55'0 0.0
2017-Nov-22 21:59N 49°44' W 124°55'0 0.0
2017-Nov-22 21:29N 49°44' W 124°55'3 5.8
2017-Nov-22 21:00N 49°45' W 124°51'815.7
2017-Nov-22 20:30N 49°44' W 124°39'612.1
2017-Nov-22 20:00N 49°49' W 124°35'2 4.1
2017-Nov-22 19:30N 49°50' W 124°32'  
2017-Nov-20 00:30N 49°49' W 124°38'611.7
2017-Nov-20 00:00N 49°45' W 124°44'611.7
2017-Nov-19 23:30N 49°45' W 124°53'2 3.1
2017-Nov-19 23:00N 49°44' W 124°55'0 0.0
2017-Nov-19 22:27N 49°44' W 124°55'0 0.0
2017-Nov-19 21:57N 49°44' W 124°55'0 0.0
2017-Nov-19 21:21N 49°44' W 124°55'0 0.0
2017-Nov-19 20:57N 49°44' W 124°55'0 0.0
2017-Nov-19 20:27N 49°44' W 124°55'0 0.0
2017-Nov-19 20:00N 49°44' W 124°55'0 0.0
2017-Nov-19 18:51N 49°44' W 124°55'0 0.0
2017-Nov-19 18:27N 49°44' W 124°55'0 0.0
2017-Nov-19 17:57N 49°44' W 124°55'0 0.0
2017-Nov-19 17:27N 49°44' W 124°55'0 0.0
2017-Nov-19 16:57N 49°44' W 124°55'0 0.0
2017-Nov-19 16:21N 49°44' W 124°55'0 0.0
2017-Nov-19 16:00N 49°44' W 124°55'0 0.0
2017-Nov-19 15:30N 49°44' W 124°55'0 0.0
2017-Nov-19 14:57N 49°44' W 124°55'0 0.0
2017-Nov-19 14:18N 49°44' W 124°55'0 0.0
2017-Nov-19 13:45N 49°44' W 124°55'0 0.0
2017-Nov-19 13:27N 49°44' W 124°55'0 0.0
2017-Nov-19 12:57N 49°44' W 124°55'0 0.0
2017-Nov-19 12:27N 49°44' W 124°55'0 0.0
2017-Nov-19 11:57N 49°44' W 124°55'0 0.0
2017-Nov-19 11:27N 49°44' W 124°55'0 0.0
2017-Nov-19 11:00N 49°44' W 124°55'0 0.0
2017-Nov-19 10:30N 49°44' W 124°55'0 0.0
2017-Nov-19 09:57N 49°44' W 124°55'0 0.0
2017-Nov-19 09:30N 49°44' W 124°55'0 0.0
2017-Nov-19 09:00N 49°44' W 124°55'0 0.0
2017-Nov-19 08:30N 49°44' W 124°55'0 0.0
2017-Nov-19 08:00N 49°44' W 124°55'0 0.0
2017-Nov-19 07:30N 49°44' W 124°55'0 0.0
2017-Nov-19 07:00N 49°44' W 124°55'0 0.0
2017-Nov-19 06:30N 49°44' W 124°55'0 0.0
2017-Nov-19 05:57N 49°44' W 124°55'0 0.0
2017-Nov-19 05:30N 49°44' W 124°55'0 0.0
2017-Nov-19 05:00N 49°44' W 124°55'0 0.0
2017-Nov-19 04:30N 49°44' W 124°55'0 0.0
2017-Nov-19 03:57N 49°44' W 124°55'0 0.0
2017-Nov-19 03:30N 49°44' W 124°55'0 0.0
2017-Nov-19 02:57N 49°44' W 124°55'0 0.0
2017-Nov-19 02:30N 49°44' W 124°55'0 0.0
2017-Nov-19 01:51N 49°44' W 124°55'0 0.0
2017-Nov-19 01:30N 49°44' W 124°55'0 0.0
2017-Nov-19 00:57N 49°44' W 124°55'0 0.0
2017-Nov-19 00:21N 49°44' W 124°55'0 0.0
2017-Nov-18 23:57N 49°44' W 124°55'0 0.0
2017-Nov-18 23:30N 49°44' W 124°55'0 0.0
2017-Nov-18 22:57N 49°44' W 124°55'0 0.0
2017-Nov-18 22:30N 49°44' W 124°55'0 0.0
2017-Nov-18 21:57N 49°44' W 124°55'0 0.0
2017-Nov-18 21:30N 49°44' W 124°55'611.7
2017-Nov-18 21:00N 49°44' W 124°46'510.6
2017-Nov-18 20:30N 49°46' W 124°39'612.4
2017-Nov-18 20:00N 49°50' W 124°32'0 0.0
2017-Nov-18 19:31N 49°50' W 124°32'5 9.8
2017-Nov-18 19:00N 49°48' W 124°39'611.7
2017-Nov-18 18:30N 49°46' W 124°47'611.2
2017-Nov-18 18:00N 49°44' W 124°55'0 0.1
2017-Nov-18 17:30N 49°44' W 124°55'714.6
2017-Nov-18 17:00N 49°43' W 124°44'511.0
2017-Nov-18 16:30N 49°48' W 124°39'510.7
2017-Nov-18 16:00N 49°50' W 124°32'2 3.9
2017-Nov-18 15:30N 49°50' W 124°35'713.0
2017-Nov-18 15:00N 49°46' W 124°43'612.3
2017-Nov-18 14:30N 49°45' W 124°53'2 4.0
2017-Nov-18 14:00N 49°44' W 124°55'0 0.0
2017-Nov-18 13:26N 49°44' W 124°55'0 0.0
2017-Nov-18 12:56N 49°44' W 124°55'0 0.0
2017-Nov-18 12:26N 49°44' W 124°55'0 0.0
2017-Nov-18 11:56N 49°44' W 124°55'0 0.0
2017-Nov-18 11:26N 49°44' W 124°55'0 0.0
2017-Nov-18 10:56N 49°44' W 124°55'0 0.0
2017-Nov-18 10:26N 49°44' W 124°55'0 0.0
2017-Nov-18 09:56N 49°44' W 124°55'0 0.0
2017-Nov-18 09:20N 49°44' W 124°55'0 0.0
2017-Nov-18 08:56N 49°44' W 124°55'0 0.0
2017-Nov-18 08:26N 49°44' W 124°55'0 0.0
2017-Nov-18 07:56N 49°44' W 124°55'0 0.0
2017-Nov-18 07:26N 49°44' W 124°55'0 0.0
2017-Nov-18 06:50N 49°44' W 124°55'0 0.0
2017-Nov-18 06:26N 49°44' W 124°55'1 1.7
2017-Nov-18 06:01N 49°45' W 124°54'714.3
2017-Nov-18 05:31N 49°47' W 124°44'714.5
2017-Nov-18 05:01N 49°50' W 124°33'1 1.4
2017-Nov-18 04:30N 49°50' W 124°32'612.3
2017-Nov-18 04:00N 49°48' W 124°41'713.8
2017-Nov-18 03:30N 49°45' W 124°51'3 5.6
2017-Nov-18 03:00N 49°44' W 124°55'0 0.0
2017-Nov-18 02:30N 49°44' W 124°55'611.0
2017-Nov-18 02:00N 49°46' W 124°47'714.9
2017-Nov-18 01:30N 49°49' W 124°37'3 6.5
2017-Nov-18 01:00N 49°50' W 124°32'0 1.0
2017-Nov-18 00:30N 49°50' W 124°32'713.8
2017-Nov-18 00:00N 49°48' W 124°43'714.0
2017-Nov-17 23:30N 49°46' W 124°53'2 4.0
2017-Nov-17 23:01N 49°44' W 124°55'0 0.0
2017-Nov-17 22:30N 49°44' W 124°55'0 0.0
2017-Nov-17 21:55N 49°44' W 124°55'0 0.0
2017-Nov-17 21:25N 49°44' W 124°55'0 0.4
2017-Nov-17 21:00N 49°44' W 124°55'713.9
2017-Nov-17 20:30N 49°47' W 124°45'714.4
2017-Nov-17 20:00N 49°49' W 124°35'2 3.8
2017-Nov-17 19:31N 49°50' W 124°32'2 4.8
2017-Nov-17 19:00N 49°49' W 124°35'714.3
2017-Nov-17 18:30N 49°47' W 124°46'713.3
2017-Nov-17 18:00N 49°44' W 124°55'0 0.0
2017-Nov-17 17:30N 49°44' W 124°55'5 9.2
2017-Nov-17 17:01N 49°46' W 124°49'714.0
2017-Nov-17 16:31N 49°48' W 124°39'5 9.0
2017-Nov-17 16:00N 49°50' W 124°32'0 0.4
2017-Nov-17 15:30N 49°50' W 124°32'714.1
2017-Nov-17 14:59N 49°48' W 124°43'714.2
2017-Nov-17 14:30N 49°46' W 124°53'2 4.0
2017-Nov-17 14:00N 49°44' W 124°55'0 0.0
2017-Nov-17 13:30N 49°44' W 124°55'0 0.0
2017-Nov-17 13:00N 49°44' W 124°55'0 0.0
2017-Nov-17 12:27N 49°44' W 124°55'0 0.0
2017-Nov-17 12:00N 49°44' W 124°55'0 0.0
2017-Nov-17 11:30N 49°44' W 124°55'0 0.0
2017-Nov-17 11:00N 49°44' W 124°55'0 0.0
2017-Nov-17 10:30N 49°44' W 124°55'0 0.0
2017-Nov-17 10:00N 49°44' W 124°55'0 0.0
2017-Nov-17 09:30N 49°44' W 124°55'0 0.0
2017-Nov-17 09:00N 49°44' W 124°55'0 0.0
2017-Nov-17 08:27N 49°44' W 124°55'0 0.0
2017-Nov-17 08:00N 49°44' W 124°55'0 0.0
2017-Nov-17 07:24N 49°44' W 124°55'0 0.0
2017-Nov-17 07:00N 49°44' W 124°55'0 0.0
2017-Nov-17 06:24N 49°44' W 124°55'0 0.1
2017-Nov-17 06:00N 49°44' W 124°55'713.2
2017-Nov-17 05:30N 49°47' W 124°46'714.6
2017-Nov-17 05:00N 49°49' W 124°35'2 4.1
2017-Nov-17 04:30N 49°50' W 124°32'612.0
2017-Nov-17 04:00N 49°48' W 124°41'714.3
2017-Nov-17 03:30N 49°45' W 124°51'3 5.6
2017-Nov-17 03:00N 49°44' W 124°55'0 0.0
2017-Nov-17 02:30N 49°44' W 124°55'510.9
2017-Nov-17 02:01N 49°46' W 124°48'714.3
2017-Nov-17 01:31N 49°49' W 124°37'4 7.2
2017-Nov-17 01:00N 49°50' W 124°32'0 0.1
2017-Nov-17 00:30N 49°50' W 124°32'612.0
2017-Nov-17 00:00N 49°48' W 124°41'714.1
2017-Nov-16 23:30N 49°46' W 124°51'3 6.7
2017-Nov-16 23:00N 49°44' W 124°55'0 0.0
2017-Nov-16 22:26N 49°44' W 124°55'0 0.0
2017-Nov-16 21:59N 49°44' W 124°55'0 0.0
2017-Nov-16 21:29N 49°44' W 124°55'1 1.2
2017-Nov-16 21:00N 49°45' W 124°55'715.0
2017-Nov-16 20:30N 49°47' W 124°44'815.3
2017-Nov-16 20:01N 49°50' W 124°33'1 1.0
2017-Nov-16 19:30N 49°50' W 124°32'3 6.6
2017-Nov-16 19:01N 49°49' W 124°37'714.0
2017-Nov-16 18:30N 49°46' W 124°47'611.8
2017-Nov-16 18:00N 49°44' W 124°55'0 0.0
2017-Nov-16 17:30N 49°44' W 124°55'510.8
2017-Nov-16 17:00N 49°46' W 124°48'714.1
2017-Nov-16 16:30N 49°49' W 124°37'4 7.3
2017-Nov-16 16:00N 49°50' W 124°32'2 3.2
2017-Nov-16 15:30N 49°50' W 124°34'713.7
2017-Nov-16 15:00N 49°47' W 124°44'714.0
2017-Nov-16 14:30N 49°45' W 124°54'1 1.5
2017-Nov-16 14:01N 49°44' W 124°55'0 0.0
2017-Nov-16 13:28N 49°44' W 124°55'0 0.0
2017-Nov-16 12:49N 49°44' W 124°55'0 0.0
2017-Nov-16 12:28N 49°44' W 124°55'0 0.0
2017-Nov-16 11:58N 49°44' W 124°55'0 0.0
2017-Nov-16 11:25N 49°44' W 124°55'0 0.0
2017-Nov-16 10:55N 49°44' W 124°55'0 0.0
2017-Nov-16 10:19N 49°44' W 124°55'0 0.0
2017-Nov-16 09:55N 49°44' W 124°55'0 0.0
2017-Nov-16 09:25N 49°44' W 124°55'0 0.0
2017-Nov-16 08:55N 49°44' W 124°55'0 0.0
2017-Nov-16 08:25N 49°44' W 124°55'0 0.0
2017-Nov-16 07:55N 49°44' W 124°55'0 0.0
2017-Nov-16 07:28N 49°44' W 124°55'0 0.0
2017-Nov-16 06:58N 49°44' W 124°55'0 0.0
2017-Nov-16 06:28N 49°44' W 124°55'0 0.3
2017-Nov-16 06:00N 49°44' W 124°55'714.8
2017-Nov-16 05:30N 49°47' W 124°44'815.6
2017-Nov-16 05:00N 49°50' W 124°33'1 1.8
2017-Nov-16 04:30N 49°50' W 124°32'3 5.6
2017-Nov-16 04:01N 49°49' W 124°36'713.8
2017-Nov-16 03:30N 49°47' W 124°46'612.5
2017-Nov-16 03:00N 49°45' W 124°55'0 0.5
2017-Nov-16 02:30N 49°44' W 124°55'0 0.0
2017-Nov-16 01:57N 49°44' W 124°55'0 0.0
2017-Nov-16 01:27N 49°44' W 124°55'0 0.0
2017-Nov-16 00:57N 49°44' W 124°55'0 0.0
2017-Nov-16 00:27N 49°44' W 124°55'0 0.0
2017-Nov-15 23:57N 49°44' W 124°55'0 0.0
2017-Nov-15 23:21N 49°44' W 124°55'0 0.0
2017-Nov-15 22:57N 49°44' W 124°55'0 0.0
2017-Nov-15 22:27N 49°44' W 124°55'0 0.0
2017-Nov-15 21:51N 49°44' W 124°55'0 0.0
2017-Nov-15 21:27N 49°44' W 124°55'0 1.1
2017-Nov-15 21:00N 49°45' W 124°55'714.0
2017-Nov-15 20:30N 49°47' W 124°44'714.9
2017-Nov-15 20:00N 49°50' W 124°34'1 2.6
2017-Nov-15 19:30N 49°50' W 124°32'3 6.0
2017-Nov-15 19:00N 49°49' W 124°36'612.9
2017-Nov-15 18:30N 49°47' W 124°46'713.2
2017-Nov-15 18:01N 49°45' W 124°55'0 0.3
2017-Nov-15 17:31N 49°44' W 124°55'4 8.5
2017-Nov-15 17:00N 49°46' W 124°49'714.8
2017-Nov-15 16:30N 49°49' W 124°38'5 9.1
2017-Nov-15 16:00N 49°50' W 124°32'1 2.5
2017-Nov-15 15:29N 49°50' W 124°34'613.3
2017-Nov-15 15:00N 49°47' W 124°43'713.7
2017-Nov-15 14:30N 49°45' W 124°53'2 3.6
2017-Nov-15 14:00N 49°44' W 124°55'0 0.0
2017-Nov-15 13:20N 49°44' W 124°55'0 0.0
2017-Nov-15 12:59N 49°44' W 124°55'0 0.0
2017-Nov-15 12:29N 49°44' W 124°55'0 0.0
2017-Nov-15 11:56N 49°44' W 124°55'0 0.0
2017-Nov-15 11:26N 49°44' W 124°55'0 0.0
2017-Nov-15 10:56N 49°44' W 124°55'0 0.0
2017-Nov-15 10:26N 49°44' W 124°55'0 0.0
2017-Nov-15 09:56N 49°44' W 124°55'0 0.0
2017-Nov-15 09:08N 49°44' W 124°55'0 0.0
2017-Nov-15 08:59N 49°44' W 124°55'0 0.0
2017-Nov-15 08:26N 49°44' W 124°55'0 0.0
2017-Nov-15 07:50N 49°44' W 124°55'0 0.0
2017-Nov-15 07:29N 49°44' W 124°55'0 0.0
2017-Nov-15 06:53N 49°44' W 124°55'1 2.6
2017-Nov-15 06:30N 49°45' W 124°54'816.5
2017-Nov-15 06:00N 49°43' W 124°41'612.5
2017-Nov-15 05:30N 49°49' W 124°38'4 8.7
2017-Nov-15 05:00N 49°50' W 124°32'2 4.2
2017-Nov-15 04:30N 49°49' W 124°35'612.7
2017-Nov-15 04:00N 49°46' W 124°43'714.4
2017-Nov-15 03:30N 49°45' W 124°54'1 1.9
2017-Nov-15 03:00N 49°44' W 124°55'4 8.4
2017-Nov-15 02:30N 49°45' W 124°49'612.9
2017-Nov-15 02:00N 49°43' W 124°39'612.3
2017-Nov-15 01:30N 49°49' W 124°37'4 7.1
2017-Nov-15 01:00N 49°50' W 124°32'2 3.9
2017-Nov-15 00:30N 49°50' W 124°35'612.4
2017-Nov-15 00:01N 49°46' W 124°42'612.4
2017-Nov-14 23:30N 49°45' W 124°52'2 5.0
2017-Nov-14 23:00N 49°44' W 124°55'2 4.1
2017-Nov-14 22:30N 49°45' W 124°52'816.5
2017-Nov-14 22:01N 49°43' W 124°40'713.5
2017-Nov-14 21:30N 49°49' W 124°36'3 6.4
2017-Nov-14 21:00N 49°50' W 124°32'1 1.4
2017-Nov-14 20:30N 49°49' W 124°32'4 8.0
2017-Nov-14 20:00N 49°49' W 124°38'4 9.0
2017-Nov-14 19:30N 49°45' W 124°43'4 8.7
2017-Nov-14 19:01N 49°45' W 124°49'4 7.9
2017-Nov-14 18:30N 49°44' W 124°55'0 0.9
2017-Nov-14 18:01N 49°45' W 124°55'816.0
2017-Nov-14 17:31N 49°43' W 124°43'510.0
2017-Nov-14 17:00N 49°47' W 124°39'510.9
2017-Nov-14 16:30N 49°50' W 124°32'0 0.2
2017-Nov-14 16:00N 49°50' W 124°32'613.0
2017-Nov-14 15:30N 49°47' W 124°41'510.2
2017-Nov-14 15:00N 49°45' W 124°48'4 8.1
2017-Nov-14 14:30N 49°45' W 124°55'1 1.0
2017-Nov-14 13:57N 49°44' W 124°55'0 0.0
2017-Nov-14 13:27N 49°44' W 124°55'0 0.0
2017-Nov-14 13:00N 49°44' W 124°55'0 0.0
2017-Nov-14 12:27N 49°44' W 124°55'0 0.0
2017-Nov-14 11:45N 49°44' W 124°55'0 0.0
2017-Nov-14 11:30N 49°44' W 124°55'0 0.0
2017-Nov-14 11:00N 49°44' W 124°55'0 0.0
2017-Nov-14 10:30N 49°44' W 124°55'0 0.0
2017-Nov-14 10:00N 49°44' W 124°55'0 0.0
2017-Nov-14 09:30N 49°44' W 124°55'0 0.0
2017-Nov-14 09:00N 49°44' W 124°55'0 0.0
2017-Nov-14 08:30N 49°44' W 124°55'0 0.0
2017-Nov-14 07:57N 49°44' W 124°55'0 0.0
2017-Nov-14 07:30N 49°44' W 124°55'0 0.0
2017-Nov-14 06:57N 49°44' W 124°55'0 0.0
2017-Nov-14 06:30N 49°44' W 124°55'0 0.2
2017-Nov-14 06:00N 49°44' W 124°55'814.9
2017-Nov-14 05:30N 49°47' W 124°44'815.9
2017-Nov-14 05:00N 49°50' W 124°33'1 1.4
2017-Nov-14 04:30N 49°50' W 124°32'4 8.5
2017-Nov-14 04:00N 49°49' W 124°38'816.1
2017-Nov-14 03:31N 49°45' W 124°49'4 6.7
2017-Nov-14 02:55N 49°44' W 124°55'0 0.0
2017-Nov-14 02:28N 49°44' W 124°55'0 0.0
2017-Nov-14 01:49N 49°44' W 124°55'0 0.0
2017-Nov-14 01:28N 49°44' W 124°55'0 0.0
2017-Nov-14 00:55N 49°44' W 124°55'0 0.0
2017-Nov-14 00:25N 49°44' W 124°55'  
Track history (hours):
 
Tides and Currents Weather Stations Pressure Air Temp Water Temp Dewpoint Dewpoint Depression Visibility Wind Speed Wind Dir Waves Ship Positions

Salish Orca

Last reported at 2017-Nov-24 00:00 UTC. Time now 2017-Nov-24 00:18 UTC.
Position N 49°48' W 124°39'.

Length 107 m; draft 4.6 m.

Type: Passenger vessel. MMSI: 316030627.

Date/timePositionNaut miles runAvg speedWind from/ knotsBaromVisibWave heightAir tempDewpointWater temp
2017-Nov-24 00:00N 49°48' W 124°39'715.0
2017-Nov-23 23:30N 49°46' W 124°50'4 7.7
2017-Nov-23 23:01N 49°44' W 124°55'0 0.0
2017-Nov-23 22:30N 49°44' W 124°55'0 0.0
2017-Nov-23 21:58N 49°44' W 124°55'0 0.0
2017-Nov-23 21:28N 49°44' W 124°55'0 1.1
2017-Nov-23 21:00N 49°45' W 124°55'713.8
2017-Nov-23 20:30N 49°46' W 124°44'713.6
2017-Nov-23 20:01N 49°49' W 124°35'2 4.2
2017-Nov-23 19:30N 49°50' W 124°32'3 5.0
2017-Nov-23 19:00N 49°49' W 124°36'713.6
2017-Nov-23 18:30N 49°47' W 124°45'713.4
2017-Nov-23 18:00N 49°45' W 124°55'0 0.4
2017-Nov-23 17:30N 49°44' W 124°55'4 8.4
2017-Nov-23 17:00N 49°46' W 124°49'714.0
2017-Nov-23 16:30N 49°48' W 124°39'5 9.9
2017-Nov-23 16:00N 49°50' W 124°32'1 2.2
2017-Nov-23 15:30N 49°50' W 124°33'816.2
2017-Nov-23 15:00N 49°47' W 124°45'714.2
2017-Nov-23 14:31N 49°44' W 124°55'0 0.0
2017-Nov-23 14:01N 49°44' W 124°55'0 0.0
2017-Nov-23 13:30N 49°44' W 124°55'0 0.0
2017-Nov-23 13:00N 49°44' W 124°55'0 0.0
2017-Nov-23 12:30N 49°44' W 124°55'0 0.0
2017-Nov-23 12:00N 49°44' W 124°55'0 0.0
2017-Nov-23 11:30N 49°44' W 124°55'0 0.0
2017-Nov-23 11:00N 49°44' W 124°55'0 0.0
2017-Nov-23 10:18N 49°44' W 124°55'0 0.0
2017-Nov-23 10:00N 49°44' W 124°55'0 0.0
2017-Nov-23 09:30N 49°44' W 124°55'0 0.0
2017-Nov-23 08:57N 49°44' W 124°55'0 0.0
2017-Nov-23 08:30N 49°44' W 124°55'0 0.0
2017-Nov-23 07:57N 49°44' W 124°55'0 0.0
2017-Nov-23 07:27N 49°44' W 124°55'0 0.0
2017-Nov-23 07:00N 49°44' W 124°55'0 0.0
2017-Nov-23 06:30N 49°44' W 124°55'0 0.0
2017-Nov-23 06:00N 49°44' W 124°55'611.2
2017-Nov-23 05:30N 49°47' W 124°47'714.1
2017-Nov-23 05:00N 49°49' W 124°37'4 7.1
2017-Nov-23 04:30N 49°50' W 124°32'1 2.0
2017-Nov-23 04:00N 49°50' W 124°33'713.7
2017-Nov-23 03:30N 49°47' W 124°43'612.9
2017-Nov-23 03:00N 49°45' W 124°53'2 3.9
2017-Nov-23 02:30N 49°44' W 124°55'0 0.0
2017-Nov-23 02:00N 49°44' W 124°55'0 0.0
2017-Nov-23 01:30N 49°44' W 124°55'0 0.0
2017-Nov-23 00:53N 49°44' W 124°55'0 0.0
2017-Nov-23 00:29N 49°44' W 124°55'0 0.0
2017-Nov-22 23:41N 49°44' W 124°55'0 0.0
2017-Nov-22 23:29N 49°44' W 124°55'0 0.0
2017-Nov-22 22:59N 49°44' W 124°55'0 0.0
2017-Nov-22 22:11N 49°44' W 124°55'0 0.0
2017-Nov-22 21:59N 49°44' W 124°55'0 0.0
2017-Nov-22 21:29N 49°44' W 124°55'3 5.8
2017-Nov-22 21:00N 49°45' W 124°51'815.7
2017-Nov-22 20:30N 49°44' W 124°39'612.1
2017-Nov-22 20:00N 49°49' W 124°35'2 4.1
2017-Nov-22 19:30N 49°50' W 124°32'  
2017-Nov-20 00:30N 49°49' W 124°38'611.7
2017-Nov-20 00:00N 49°45' W 124°44'611.7
2017-Nov-19 23:30N 49°45' W 124°53'2 3.1
2017-Nov-19 23:00N 49°44' W 124°55'0 0.0
2017-Nov-19 22:27N 49°44' W 124°55'0 0.0
2017-Nov-19 21:57N 49°44' W 124°55'0 0.0
2017-Nov-19 21:21N 49°44' W 124°55'0 0.0
2017-Nov-19 20:57N 49°44' W 124°55'0 0.0
2017-Nov-19 20:27N 49°44' W 124°55'0 0.0
2017-Nov-19 20:00N 49°44' W 124°55'0 0.0
2017-Nov-19 18:51N 49°44' W 124°55'0 0.0
2017-Nov-19 18:27N 49°44' W 124°55'0 0.0
2017-Nov-19 17:57N 49°44' W 124°55'0 0.0
2017-Nov-19 17:27N 49°44' W 124°55'0 0.0
2017-Nov-19 16:57N 49°44' W 124°55'0 0.0
2017-Nov-19 16:21N 49°44' W 124°55'0 0.0
2017-Nov-19 16:00N 49°44' W 124°55'0 0.0
2017-Nov-19 15:30N 49°44' W 124°55'0 0.0
2017-Nov-19 14:57N 49°44' W 124°55'0 0.0
2017-Nov-19 14:18N 49°44' W 124°55'0 0.0
2017-Nov-19 13:45N 49°44' W 124°55'0 0.0
2017-Nov-19 13:27N 49°44' W 124°55'0 0.0
2017-Nov-19 12:57N 49°44' W 124°55'0 0.0
2017-Nov-19 12:27N 49°44' W 124°55'0 0.0
2017-Nov-19 11:57N 49°44' W 124°55'0 0.0
2017-Nov-19 11:27N 49°44' W 124°55'0 0.0
2017-Nov-19 11:00N 49°44' W 124°55'0 0.0
2017-Nov-19 10:30N 49°44' W 124°55'0 0.0
2017-Nov-19 09:57N 49°44' W 124°55'0 0.0
2017-Nov-19 09:30N 49°44' W 124°55'0 0.0
2017-Nov-19 09:00N 49°44' W 124°55'0 0.0
2017-Nov-19 08:30N 49°44' W 124°55'0 0.0
2017-Nov-19 08:00N 49°44' W 124°55'0 0.0
2017-Nov-19 07:30N 49°44' W 124°55'0 0.0
2017-Nov-19 07:00N 49°44' W 124°55'0 0.0
2017-Nov-19 06:30N 49°44' W 124°55'0 0.0
2017-Nov-19 05:57N 49°44' W 124°55'0 0.0
2017-Nov-19 05:30N 49°44' W 124°55'0 0.0
2017-Nov-19 05:00N 49°44' W 124°55'0 0.0
2017-Nov-19 04:30N 49°44' W 124°55'0 0.0
2017-Nov-19 03:57N 49°44' W 124°55'0 0.0
2017-Nov-19 03:30N 49°44' W 124°55'0 0.0
2017-Nov-19 02:57N 49°44' W 124°55'0 0.0
2017-Nov-19 02:30N 49°44' W 124°55'0 0.0
2017-Nov-19 01:51N 49°44' W 124°55'0 0.0
2017-Nov-19 01:30N 49°44' W 124°55'0 0.0
2017-Nov-19 00:57N 49°44' W 124°55'0 0.0
2017-Nov-19 00:21N 49°44' W 124°55'0 0.0
2017-Nov-18 23:57N 49°44' W 124°55'0 0.0
2017-Nov-18 23:30N 49°44' W 124°55'0 0.0
2017-Nov-18 22:57N 49°44' W 124°55'0 0.0
2017-Nov-18 22:30N 49°44' W 124°55'0 0.0
2017-Nov-18 21:57N 49°44' W 124°55'0 0.0
2017-Nov-18 21:30N 49°44' W 124°55'611.7
2017-Nov-18 21:00N 49°44' W 124°46'510.6
2017-Nov-18 20:30N 49°46' W 124°39'612.4
2017-Nov-18 20:00N 49°50' W 124°32'0 0.0
2017-Nov-18 19:31N 49°50' W 124°32'5 9.8
2017-Nov-18 19:00N 49°48' W 124°39'611.7
2017-Nov-18 18:30N 49°46' W 124°47'611.2
2017-Nov-18 18:00N 49°44' W 124°55'0 0.1
2017-Nov-18 17:30N 49°44' W 124°55'714.6
2017-Nov-18 17:00N 49°43' W 124°44'511.0
2017-Nov-18 16:30N 49°48' W 124°39'510.7
2017-Nov-18 16:00N 49°50' W 124°32'2 3.9
2017-Nov-18 15:30N 49°50' W 124°35'713.0
2017-Nov-18 15:00N 49°46' W 124°43'612.3
2017-Nov-18 14:30N 49°45' W 124°53'2 4.0
2017-Nov-18 14:00N 49°44' W 124°55'0 0.0
2017-Nov-18 13:26N 49°44' W 124°55'0 0.0
2017-Nov-18 12:56N 49°44' W 124°55'0 0.0
2017-Nov-18 12:26N 49°44' W 124°55'0 0.0
2017-Nov-18 11:56N 49°44' W 124°55'0 0.0
2017-Nov-18 11:26N 49°44' W 124°55'0 0.0
2017-Nov-18 10:56N 49°44' W 124°55'0 0.0
2017-Nov-18 10:26N 49°44' W 124°55'0 0.0
2017-Nov-18 09:56N 49°44' W 124°55'0 0.0
2017-Nov-18 09:20N 49°44' W 124°55'0 0.0
2017-Nov-18 08:56N 49°44' W 124°55'0 0.0
2017-Nov-18 08:26N 49°44' W 124°55'0 0.0
2017-Nov-18 07:56N 49°44' W 124°55'0 0.0
2017-Nov-18 07:26N 49°44' W 124°55'0 0.0
2017-Nov-18 06:50N 49°44' W 124°55'0 0.0
2017-Nov-18 06:26N 49°44' W 124°55'1 1.7
2017-Nov-18 06:01N 49°45' W 124°54'714.3
2017-Nov-18 05:31N 49°47' W 124°44'714.5
2017-Nov-18 05:01N 49°50' W 124°33'1 1.4
2017-Nov-18 04:30N 49°50' W 124°32'612.3
2017-Nov-18 04:00N 49°48' W 124°41'713.8
2017-Nov-18 03:30N 49°45' W 124°51'3 5.6
2017-Nov-18 03:00N 49°44' W 124°55'0 0.0
2017-Nov-18 02:30N 49°44' W 124°55'611.0
2017-Nov-18 02:00N 49°46' W 124°47'714.9
2017-Nov-18 01:30N 49°49' W 124°37'3 6.5
2017-Nov-18 01:00N 49°50' W 124°32'0 1.0
2017-Nov-18 00:30N 49°50' W 124°32'713.8
2017-Nov-18 00:00N 49°48' W 124°43'714.0
2017-Nov-17 23:30N 49°46' W 124°53'2 4.0
2017-Nov-17 23:01N 49°44' W 124°55'0 0.0
2017-Nov-17 22:30N 49°44' W 124°55'0 0.0
2017-Nov-17 21:55N 49°44' W 124°55'0 0.0
2017-Nov-17 21:25N 49°44' W 124°55'0 0.4
2017-Nov-17 21:00N 49°44' W 124°55'713.9
2017-Nov-17 20:30N 49°47' W 124°45'714.4
2017-Nov-17 20:00N 49°49' W 124°35'2 3.8
2017-Nov-17 19:31N 49°50' W 124°32'2 4.8
2017-Nov-17 19:00N 49°49' W 124°35'714.3
2017-Nov-17 18:30N 49°47' W 124°46'713.3
2017-Nov-17 18:00N 49°44' W 124°55'0 0.0
2017-Nov-17 17:30N 49°44' W 124°55'5 9.2
2017-Nov-17 17:01N 49°46' W 124°49'714.0
2017-Nov-17 16:31N 49°48' W 124°39'5 9.0
2017-Nov-17 16:00N 49°50' W 124°32'0 0.4
2017-Nov-17 15:30N 49°50' W 124°32'714.1
2017-Nov-17 14:59N 49°48' W 124°43'714.2
2017-Nov-17 14:30N 49°46' W 124°53'2 4.0
2017-Nov-17 14:00N 49°44' W 124°55'0 0.0
2017-Nov-17 13:30N 49°44' W 124°55'0 0.0
2017-Nov-17 13:00N 49°44' W 124°55'0 0.0
2017-Nov-17 12:27N 49°44' W 124°55'0 0.0
2017-Nov-17 12:00N 49°44' W 124°55'0 0.0
2017-Nov-17 11:30N 49°44' W 124°55'0 0.0
2017-Nov-17 11:00N 49°44' W 124°55'0 0.0
2017-Nov-17 10:30N 49°44' W 124°55'0 0.0
2017-Nov-17 10:00N 49°44' W 124°55'0 0.0
2017-Nov-17 09:30N 49°44' W 124°55'0 0.0
2017-Nov-17 09:00N 49°44' W 124°55'0 0.0
2017-Nov-17 08:27N 49°44' W 124°55'0 0.0
2017-Nov-17 08:00N 49°44' W 124°55'0 0.0
2017-Nov-17 07:24N 49°44' W 124°55'0 0.0
2017-Nov-17 07:00N 49°44' W 124°55'0 0.0
2017-Nov-17 06:24N 49°44' W 124°55'0 0.1
2017-Nov-17 06:00N 49°44' W 124°55'713.2
2017-Nov-17 05:30N 49°47' W 124°46'714.6
2017-Nov-17 05:00N 49°49' W 124°35'2 4.1
2017-Nov-17 04:30N 49°50' W 124°32'612.0
2017-Nov-17 04:00N 49°48' W 124°41'714.3
2017-Nov-17 03:30N 49°45' W 124°51'3 5.6
2017-Nov-17 03:00N 49°44' W 124°55'0 0.0
2017-Nov-17 02:30N 49°44' W 124°55'510.9
2017-Nov-17 02:01N 49°46' W 124°48'714.3
2017-Nov-17 01:31N 49°49' W 124°37'4 7.2
2017-Nov-17 01:00N 49°50' W 124°32'0 0.1
2017-Nov-17 00:30N 49°50' W 124°32'612.0
2017-Nov-17 00:00N 49°48' W 124°41'714.1
2017-Nov-16 23:30N 49°46' W 124°51'3 6.7
2017-Nov-16 23:00N 49°44' W 124°55'0 0.0
2017-Nov-16 22:26N 49°44' W 124°55'0 0.0
2017-Nov-16 21:59N 49°44' W 124°55'0 0.0
2017-Nov-16 21:29N 49°44' W 124°55'1 1.2
2017-Nov-16 21:00N 49°45' W 124°55'715.0
2017-Nov-16 20:30N 49°47' W 124°44'815.3
2017-Nov-16 20:01N 49°50' W 124°33'1 1.0
2017-Nov-16 19:30N 49°50' W 124°32'3 6.6
2017-Nov-16 19:01N 49°49' W 124°37'714.0
2017-Nov-16 18:30N 49°46' W 124°47'611.8
2017-Nov-16 18:00N 49°44' W 124°55'0 0.0
2017-Nov-16 17:30N 49°44' W 124°55'510.8
2017-Nov-16 17:00N 49°46' W 124°48'714.1
2017-Nov-16 16:30N 49°49' W 124°37'4 7.3
2017-Nov-16 16:00N 49°50' W 124°32'2 3.2
2017-Nov-16 15:30N 49°50' W 124°34'713.7
2017-Nov-16 15:00N 49°47' W 124°44'714.0
2017-Nov-16 14:30N 49°45' W 124°54'1 1.5
2017-Nov-16 14:01N 49°44' W 124°55'0 0.0
2017-Nov-16 13:28N 49°44' W 124°55'0 0.0
2017-Nov-16 12:49N 49°44' W 124°55'0 0.0
2017-Nov-16 12:28N 49°44' W 124°55'0 0.0
2017-Nov-16 11:58N 49°44' W 124°55'0 0.0
2017-Nov-16 11:25N 49°44' W 124°55'0 0.0
2017-Nov-16 10:55N 49°44' W 124°55'0 0.0
2017-Nov-16 10:19N 49°44' W 124°55'0 0.0
2017-Nov-16 09:55N 49°44' W 124°55'0 0.0
2017-Nov-16 09:25N 49°44' W 124°55'0 0.0
2017-Nov-16 08:55N 49°44' W 124°55'0 0.0
2017-Nov-16 08:25N 49°44' W 124°55'0 0.0
2017-Nov-16 07:55N 49°44' W 124°55'0 0.0
2017-Nov-16 07:28N 49°44' W 124°55'0 0.0
2017-Nov-16 06:58N 49°44' W 124°55'0 0.0
2017-Nov-16 06:28N 49°44' W 124°55'0 0.3
2017-Nov-16 06:00N 49°44' W 124°55'714.8
2017-Nov-16 05:30N 49°47' W 124°44'815.6
2017-Nov-16 05:00N 49°50' W 124°33'1 1.8
2017-Nov-16 04:30N 49°50' W 124°32'3 5.6
2017-Nov-16 04:01N 49°49' W 124°36'713.8
2017-Nov-16 03:30N 49°47' W 124°46'612.5
2017-Nov-16 03:00N 49°45' W 124°55'0 0.5
2017-Nov-16 02:30N 49°44' W 124°55'0 0.0
2017-Nov-16 01:57N 49°44' W 124°55'0 0.0
2017-Nov-16 01:27N 49°44' W 124°55'0 0.0
2017-Nov-16 00:57N 49°44' W 124°55'0 0.0
2017-Nov-16 00:27N 49°44' W 124°55'0 0.0
2017-Nov-15 23:57N 49°44' W 124°55'0 0.0
2017-Nov-15 23:21N 49°44' W 124°55'0 0.0
2017-Nov-15 22:57N 49°44' W 124°55'0 0.0
2017-Nov-15 22:27N 49°44' W 124°55'0 0.0
2017-Nov-15 21:51N 49°44' W 124°55'0 0.0
2017-Nov-15 21:27N 49°44' W 124°55'0 1.1
2017-Nov-15 21:00N 49°45' W 124°55'714.0
2017-Nov-15 20:30N 49°47' W 124°44'714.9
2017-Nov-15 20:00N 49°50' W 124°34'1 2.6
2017-Nov-15 19:30N 49°50' W 124°32'3 6.0
2017-Nov-15 19:00N 49°49' W 124°36'612.9
2017-Nov-15 18:30N 49°47' W 124°46'713.2
2017-Nov-15 18:01N 49°45' W 124°55'0 0.3
2017-Nov-15 17:31N 49°44' W 124°55'4 8.5
2017-Nov-15 17:00N 49°46' W 124°49'714.8
2017-Nov-15 16:30N 49°49' W 124°38'5 9.1
2017-Nov-15 16:00N 49°50' W 124°32'1 2.5
2017-Nov-15 15:29N 49°50' W 124°34'613.3
2017-Nov-15 15:00N 49°47' W 124°43'713.7
2017-Nov-15 14:30N 49°45' W 124°53'2 3.6
2017-Nov-15 14:00N 49°44' W 124°55'0 0.0
2017-Nov-15 13:20N 49°44' W 124°55'0 0.0
2017-Nov-15 12:59N 49°44' W 124°55'0 0.0
2017-Nov-15 12:29N 49°44' W 124°55'0 0.0
2017-Nov-15 11:56N 49°44' W 124°55'0 0.0
2017-Nov-15 11:26N 49°44' W 124°55'0 0.0
2017-Nov-15 10:56N 49°44' W 124°55'0 0.0
2017-Nov-15 10:26N 49°44' W 124°55'0 0.0
2017-Nov-15 09:56N 49°44' W 124°55'0 0.0
2017-Nov-15 09:08N 49°44' W 124°55'0 0.0
2017-Nov-15 08:59N 49°44' W 124°55'0 0.0
2017-Nov-15 08:26N 49°44' W 124°55'0 0.0
2017-Nov-15 07:50N 49°44' W 124°55'0 0.0
2017-Nov-15 07:29N 49°44' W 124°55'0 0.0
2017-Nov-15 06:53N 49°44' W 124°55'1 2.6
2017-Nov-15 06:30N 49°45' W 124°54'816.5
2017-Nov-15 06:00N 49°43' W 124°41'612.5
2017-Nov-15 05:30N 49°49' W 124°38'4 8.7
2017-Nov-15 05:00N 49°50' W 124°32'2 4.2
2017-Nov-15 04:30N 49°49' W 124°35'612.7
2017-Nov-15 04:00N 49°46' W 124°43'714.4
2017-Nov-15 03:30N 49°45' W 124°54'1 1.9
2017-Nov-15 03:00N 49°44' W 124°55'4 8.4
2017-Nov-15 02:30N 49°45' W 124°49'612.9
2017-Nov-15 02:00N 49°43' W 124°39'612.3
2017-Nov-15 01:30N 49°49' W 124°37'4 7.1
2017-Nov-15 01:00N 49°50' W 124°32'2 3.9
2017-Nov-15 00:30N 49°50' W 124°35'612.4
2017-Nov-15 00:01N 49°46' W 124°42'612.4
2017-Nov-14 23:30N 49°45' W 124°52'2 5.0
2017-Nov-14 23:00N 49°44' W 124°55'2 4.1
2017-Nov-14 22:30N 49°45' W 124°52'816.5
2017-Nov-14 22:01N 49°43' W 124°40'713.5
2017-Nov-14 21:30N 49°49' W 124°36'3 6.4
2017-Nov-14 21:00N 49°50' W 124°32'1 1.4
2017-Nov-14 20:30N 49°49' W 124°32'4 8.0
2017-Nov-14 20:00N 49°49' W 124°38'4 9.0
2017-Nov-14 19:30N 49°45' W 124°43'4 8.7
2017-Nov-14 19:01N 49°45' W 124°49'4 7.9
2017-Nov-14 18:30N 49°44' W 124°55'0 0.9
2017-Nov-14 18:01N 49°45' W 124°55'816.0
2017-Nov-14 17:31N 49°43' W 124°43'510.0
2017-Nov-14 17:00N 49°47' W 124°39'510.9
2017-Nov-14 16:30N 49°50' W 124°32'0 0.2
2017-Nov-14 16:00N 49°50' W 124°32'613.0
2017-Nov-14 15:30N 49°47' W 124°41'510.2
2017-Nov-14 15:00N 49°45' W 124°48'4 8.1
2017-Nov-14 14:30N 49°45' W 124°55'1 1.0
2017-Nov-14 13:57N 49°44' W 124°55'0 0.0
2017-Nov-14 13:27N 49°44' W 124°55'0 0.0
2017-Nov-14 13:00N 49°44' W 124°55'0 0.0
2017-Nov-14 12:27N 49°44' W 124°55'0 0.0
2017-Nov-14 11:45N 49°44' W 124°55'0 0.0
2017-Nov-14 11:30N 49°44' W 124°55'0 0.0
2017-Nov-14 11:00N 49°44' W 124°55'0 0.0
2017-Nov-14 10:30N 49°44' W 124°55'0 0.0
2017-Nov-14 10:00N 49°44' W 124°55'0 0.0
2017-Nov-14 09:30N 49°44' W 124°55'0 0.0
2017-Nov-14 09:00N 49°44' W 124°55'0 0.0
2017-Nov-14 08:30N 49°44' W 124°55'0 0.0
2017-Nov-14 07:57N 49°44' W 124°55'0 0.0
2017-Nov-14 07:30N 49°44' W 124°55'0 0.0
2017-Nov-14 06:57N 49°44' W 124°55'0 0.0
2017-Nov-14 06:30N 49°44' W 124°55'0 0.2
2017-Nov-14 06:00N 49°44' W 124°55'814.9
2017-Nov-14 05:30N 49°47' W 124°44'815.9
2017-Nov-14 05:00N 49°50' W 124°33'1 1.4
2017-Nov-14 04:30N 49°50' W 124°32'4 8.5
2017-Nov-14 04:00N 49°49' W 124°38'816.1
2017-Nov-14 03:31N 49°45' W 124°49'4 6.7
2017-Nov-14 02:55N 49°44' W 124°55'0 0.0
2017-Nov-14 02:28N 49°44' W 124°55'0 0.0
2017-Nov-14 01:49N 49°44' W 124°55'0 0.0
2017-Nov-14 01:28N 49°44' W 124°55'0 0.0
2017-Nov-14 00:55N 49°44' W 124°55'0 0.0
2017-Nov-14 00:25N 49°44' W 124°55'  

Dump ship's entire track history